createdAt,value
2023-05-20T00:02:09.105Z,11.04
2023-05-20T00:05:12.203Z,11.02
2023-05-20T00:08:14.069Z,11.00
2023-05-20T00:11:15.872Z,10.95
2023-05-20T00:14:17.678Z,10.94
2023-05-20T00:17:19.449Z,10.99
2023-05-20T00:20:22.494Z,11.02
2023-05-20T00:23:24.312Z,10.98
2023-05-20T00:26:26.731Z,10.93
2023-05-20T00:29:31.034Z,10.91
2023-05-20T00:32:32.861Z,10.89
2023-05-20T00:35:36.865Z,10.84
2023-05-20T00:38:38.688Z,10.82
2023-05-20T00:41:40.988Z,10.80
2023-05-20T00:44:42.739Z,10.72
2023-05-20T00:47:44.566Z,10.60
2023-05-20T00:50:48.104Z,10.54
2023-05-20T00:53:50.617Z,10.53
2023-05-20T00:56:52.462Z,10.53
2023-05-20T00:59:54.275Z,10.46
2023-05-20T01:02:57.001Z,10.46
2023-05-20T01:06:01.217Z,10.46
2023-05-20T01:09:03.321Z,10.45
2023-05-20T01:12:09.372Z,10.40
2023-05-20T01:15:12.292Z,10.34
2023-05-20T01:18:18.579Z,10.25
2023-05-20T01:21:22.243Z,10.23
2023-05-20T01:24:25.720Z,10.22
2023-05-20T01:27:27.569Z,10.23
2023-05-20T01:30:30.832Z,10.15
2023-05-20T01:33:36.057Z,10.15
2023-05-20T01:36:38.922Z,10.10
2023-05-20T01:39:42.769Z,10.10
2023-05-20T01:42:46.078Z,10.13
2023-05-20T01:45:48.229Z,10.14
2023-05-20T01:48:52.661Z,10.14
2023-05-20T01:51:54.765Z,10.12
2023-05-20T01:54:58.608Z,10.06
2023-05-20T01:58:00.291Z,10.08
2023-05-20T02:01:02.585Z,10.08
2023-05-20T02:04:05.990Z,10.07
2023-05-20T02:07:08.107Z,10.11
2023-05-20T02:10:13.969Z,10.10
2023-05-20T02:13:17.514Z,10.06
2023-05-20T02:16:19.609Z,10.03
2023-05-20T02:19:23.971Z,10.04
2023-05-20T02:22:26.107Z,10.02
2023-05-20T02:25:29.242Z,9.99
2023-05-20T02:28:31.097Z,9.97
2023-05-20T02:31:33.165Z,9.96
2023-05-20T02:34:38.008Z,9.94
2023-05-20T02:37:40.391Z,9.91
2023-05-20T02:40:45.446Z,9.89
2023-05-20T02:43:47.526Z,9.88
2023-05-20T02:46:49.291Z,9.86
2023-05-20T02:49:51.208Z,9.82
2023-05-20T02:52:53.001Z,9.81
2023-05-20T02:55:56.248Z,9.83
2023-05-20T02:58:58.038Z,9.84
2023-05-20T03:02:00.045Z,9.82
2023-05-20T03:05:02.590Z,9.79
2023-05-20T03:08:04.631Z,9.77
2023-05-20T03:11:07.689Z,9.78
2023-05-20T03:14:09.477Z,9.76
2023-05-20T03:17:11.727Z,9.77
2023-05-20T03:20:13.615Z,9.74
2023-05-20T03:23:16.106Z,9.72
2023-05-20T03:26:19.520Z,9.71
2023-05-20T03:29:22.728Z,9.68
2023-05-20T03:32:24.754Z,9.68
2023-05-20T03:35:26.711Z,9.68
2023-05-20T03:38:29.604Z,9.69
2023-05-20T03:41:32.732Z,9.65
2023-05-20T03:44:34.544Z,9.62
2023-05-20T03:47:37.381Z,9.61
2023-05-20T03:50:39.175Z,9.61
2023-05-20T03:53:41.058Z,9.62
2023-05-20T03:56:47.070Z,9.64
2023-05-20T03:59:49.170Z,9.56
2023-05-20T04:02:51.507Z,9.60
2023-05-20T04:05:54.259Z,9.63
2023-05-20T04:08:57.569Z,9.61
2023-05-20T04:12:03.765Z,9.61
2023-05-20T04:15:06.835Z,9.65
2023-05-20T04:18:16.765Z,9.64
2023-05-20T04:21:19.473Z,9.65
2023-05-20T04:24:25.257Z,9.64
2023-05-20T04:27:28.901Z,9.61
2023-05-20T04:30:33.483Z,9.58
2023-05-20T04:33:38.154Z,9.57
2023-05-20T04:36:40.943Z,9.56
2023-05-20T04:39:43.891Z,9.59
2023-05-20T04:42:51.138Z,9.59
2023-05-20T04:45:55.895Z,9.64
2023-05-20T04:48:58.029Z,9.65
2023-05-20T04:52:00.922Z,9.69
2023-05-20T04:55:03.095Z,9.74
2023-05-20T04:58:08.282Z,9.88
2023-05-20T05:01:10.576Z,9.99
2023-05-20T05:04:12.461Z,10.13
2023-05-20T05:07:14.297Z,10.21
2023-05-20T05:10:16.445Z,10.27
2023-05-20T05:13:19.821Z,10.30
2023-05-20T05:16:23.417Z,10.25
2023-05-20T05:19:25.422Z,10.24
2023-05-20T05:22:27.335Z,10.23
2023-05-20T05:25:29.152Z,10.25
2023-05-20T05:28:34.830Z,10.22
2023-05-20T05:31:36.595Z,10.22
2023-05-20T05:34:38.453Z,10.25
2023-05-20T05:37:40.263Z,10.27
2023-05-20T05:40:42.905Z,10.26
2023-05-20T05:43:46.059Z,10.29
2023-05-20T05:46:48.039Z,10.31
2023-05-20T05:49:49.889Z,10.35
2023-05-20T05:52:51.810Z,10.39
2023-05-20T05:55:53.597Z,10.44
2023-05-20T05:58:56.927Z,10.62
2023-05-20T06:01:59.360Z,10.86
2023-05-20T06:05:01.362Z,11.08
2023-05-20T06:08:03.134Z,11.26
2023-05-20T06:11:07.544Z,11.48
2023-05-20T06:14:11.155Z,11.64
2023-05-20T06:17:13.057Z,11.74
2023-05-20T06:20:15.451Z,11.88
2023-05-20T06:23:18.437Z,11.94
2023-05-20T06:26:27.973Z,12.01
2023-05-20T06:29:31.190Z,12.12
2023-05-20T06:32:32.986Z,12.18
2023-05-20T06:35:35.934Z,12.23
2023-05-20T06:38:39.492Z,12.37
2023-05-20T06:41:41.851Z,12.40
2023-05-20T06:44:46.487Z,12.48
2023-05-20T06:47:54.930Z,12.59
2023-05-20T06:50:57.093Z,12.67
2023-05-20T06:53:59.088Z,12.74
2023-05-20T06:57:01.380Z,12.73
2023-05-20T07:00:06.062Z,12.80
2023-05-20T07:03:12.447Z,12.89
2023-05-20T07:06:15.000Z,12.88
2023-05-20T07:09:17.145Z,12.90
2023-05-20T07:12:21.084Z,13.00
2023-05-20T07:15:24.225Z,13.14
2023-05-20T07:18:26.107Z,13.19
2023-05-20T07:21:29.523Z,13.38
2023-05-20T07:24:43.617Z,13.44
2023-05-20T07:27:46.383Z,13.63
2023-05-20T07:30:50.555Z,13.78
2023-05-20T07:33:59.623Z,13.87
2023-05-20T07:37:01.513Z,13.97
2023-05-20T07:40:03.860Z,13.96
2023-05-20T07:43:06.197Z,13.88
2023-05-20T07:46:09.746Z,13.77
2023-05-20T07:49:12.202Z,13.58
2023-05-20T07:52:15.047Z,13.48
2023-05-20T07:55:18.732Z,13.53
2023-05-20T07:58:21.863Z,13.58
2023-05-20T08:01:27.024Z,13.70
2023-05-20T08:04:30.032Z,13.81
2023-05-20T08:07:32.399Z,13.80
2023-05-20T08:10:34.321Z,13.83
2023-05-20T08:13:36.547Z,13.90
2023-05-20T08:16:42.111Z,13.85
2023-05-20T08:19:44.179Z,13.83
2023-05-20T08:22:48.842Z,13.88
2023-05-20T08:25:50.954Z,13.70
2023-05-20T08:28:55.388Z,13.71
2023-05-20T08:32:00.803Z,13.66
2023-05-20T08:35:02.868Z,13.71
2023-05-20T08:38:05.227Z,13.78
2023-05-20T08:41:07.051Z,13.78
2023-05-20T08:44:11.801Z,13.97
2023-05-20T08:47:16.486Z,14.05
2023-05-20T08:50:18.952Z,14.09
2023-05-20T08:53:23.092Z,14.24
2023-05-20T08:56:29.999Z,14.38
2023-05-20T08:59:34.980Z,14.31
2023-05-20T09:02:38.775Z,14.25
2023-05-20T09:05:40.861Z,14.46
2023-05-20T09:08:43.041Z,14.72
2023-05-20T09:11:45.202Z,14.83
2023-05-20T09:14:47.148Z,15.03
2023-05-20T09:17:50.823Z,15.40
2023-05-20T09:20:55.474Z,15.15
2023-05-20T09:23:59.325Z,14.85
2023-05-20T09:27:01.359Z,14.75
2023-05-20T09:30:07.417Z,14.78
2023-05-20T09:33:11.615Z,14.67
2023-05-20T09:36:16.403Z,14.88
2023-05-20T09:39:22.786Z,14.95
2023-05-20T09:42:28.720Z,15.20
2023-05-20T09:45:32.071Z,15.08
2023-05-20T09:48:39.940Z,14.94
2023-05-20T09:51:42.108Z,14.99
2023-05-20T09:54:44.715Z,15.13
2023-05-20T09:57:47.456Z,15.27
2023-05-20T10:00:49.534Z,15.36
2023-05-20T10:03:53.707Z,15.33
2023-05-20T10:07:33.961Z,15.25
2023-05-20T10:10:46.290Z,15.37
2023-05-20T10:13:56.377Z,15.04
2023-05-20T10:17:02.626Z,14.79
2023-05-20T10:20:09.225Z,14.82
2023-05-20T10:23:20.724Z,14.89
2023-05-20T10:26:22.718Z,14.98
2023-05-20T10:29:24.802Z,14.91
2023-05-20T10:32:27.686Z,14.96
2023-05-20T10:35:31.341Z,15.10
2023-05-20T10:38:33.175Z,15.17
2023-05-20T10:41:34.950Z,15.32
2023-05-20T10:44:44.097Z,15.41
2023-05-20T10:47:55.272Z,15.42
2023-05-20T10:51:00.014Z,15.63
2023-05-20T10:54:03.391Z,15.74
2023-05-20T10:57:07.464Z,15.94
2023-05-20T11:00:10.881Z,16.04
2023-05-20T11:03:14.704Z,16.04
2023-05-20T11:06:19.068Z,16.06
2023-05-20T11:09:21.269Z,15.93
2023-05-20T11:12:23.911Z,15.76
2023-05-20T11:15:26.144Z,15.47
2023-05-20T11:18:31.083Z,15.29
2023-05-20T11:21:34.264Z,15.18
2023-05-20T11:24:40.531Z,15.15
2023-05-20T11:27:43.168Z,15.12
2023-05-20T11:30:45.029Z,15.10
2023-05-20T11:33:46.871Z,15.07
2023-05-20T11:36:56.636Z,15.14
2023-05-20T11:40:08.962Z,15.32
2023-05-20T11:43:12.432Z,15.39
2023-05-20T11:46:14.838Z,15.33
2023-05-20T11:49:17.414Z,15.38
2023-05-20T11:52:23.685Z,15.67
2023-05-20T11:55:25.705Z,15.75
2023-05-20T11:58:32.567Z,15.88
2023-05-20T12:01:42.999Z,16.11
2023-05-20T12:04:44.954Z,16.38
2023-05-20T12:07:48.132Z,16.53
2023-05-20T12:10:50.027Z,16.61
2023-05-20T12:13:52.260Z,16.53
2023-05-20T12:16:54.038Z,16.36
2023-05-20T12:19:55.787Z,16.43
2023-05-20T12:22:59.998Z,16.49
2023-05-20T12:26:01.897Z,16.50
2023-05-20T12:29:03.773Z,16.55
2023-05-20T12:32:06.134Z,16.63
2023-05-20T12:35:08.488Z,16.63
2023-05-20T12:38:11.730Z,16.42
2023-05-20T12:41:13.485Z,16.32
2023-05-20T12:44:15.331Z,16.30
2023-05-20T12:47:17.214Z,16.28
2023-05-20T12:50:21.611Z,16.19
2023-05-20T12:53:25.730Z,16.25
2023-05-20T12:56:27.930Z,16.19
2023-05-20T12:59:29.913Z,16.30
2023-05-20T13:02:31.836Z,16.77
2023-05-20T13:05:33.629Z,16.77
2023-05-20T13:08:37.131Z,16.47
2023-05-20T13:11:38.939Z,16.15
2023-05-20T13:14:41.836Z,16.15
2023-05-20T13:17:44.170Z,16.22
2023-05-20T13:20:46.942Z,16.33
2023-05-20T13:23:50.508Z,16.15
2023-05-20T13:26:52.285Z,16.02
2023-05-20T13:29:54.230Z,15.87
2023-05-20T13:32:57.312Z,15.84
2023-05-20T13:35:59.370Z,15.86
2023-05-20T13:39:02.840Z,15.90
2023-05-20T13:42:05.472Z,15.84
2023-05-20T13:45:07.956Z,15.72
2023-05-20T13:48:11.324Z,15.75
2023-05-20T13:51:13.251Z,15.68
2023-05-20T13:54:16.840Z,15.64
2023-05-20T13:57:21.333Z,15.73
2023-05-20T14:00:23.154Z,16.06
2023-05-20T14:03:24.935Z,16.25
2023-05-20T14:06:26.832Z,16.31
2023-05-20T14:09:30.543Z,16.16
2023-05-20T14:12:32.378Z,15.83
2023-05-20T14:15:34.147Z,15.68
2023-05-20T14:18:36.076Z,15.67
2023-05-20T14:21:38.332Z,15.76
2023-05-20T14:24:41.524Z,15.82
2023-05-20T14:27:45.280Z,15.69
2023-05-20T14:30:47.303Z,15.51
2023-05-20T14:33:49.516Z,15.47
2023-05-20T14:36:51.256Z,15.49
2023-05-20T14:39:54.638Z,15.35
2023-05-20T14:42:56.529Z,15.30
2023-05-20T14:45:58.498Z,15.11
2023-05-20T14:49:00.249Z,15.06
2023-05-20T14:52:02.094Z,15.03
2023-05-20T14:55:05.969Z,14.98
2023-05-20T14:58:07.730Z,14.91
2023-05-20T15:01:09.513Z,15.00
2023-05-20T15:04:11.542Z,15.00
2023-05-20T15:07:13.414Z,14.95
2023-05-20T15:10:16.711Z,14.99
2023-05-20T15:13:18.642Z,14.96
2023-05-20T15:16:24.208Z,14.94
2023-05-20T15:19:26.179Z,14.97
2023-05-20T15:22:28.102Z,14.95
2023-05-20T15:25:31.200Z,14.87
2023-05-20T15:28:33.015Z,14.82
2023-05-20T15:31:34.787Z,14.78
2023-05-20T15:34:37.946Z,14.68
2023-05-20T15:37:44.716Z,14.73
2023-05-20T15:40:50.401Z,14.77
2023-05-20T15:43:52.309Z,14.79
2023-05-20T15:46:54.110Z,14.81
2023-05-20T15:49:57.480Z,14.87
2023-05-20T15:52:59.336Z,14.88
2023-05-20T15:56:02.527Z,14.75
2023-05-20T15:59:04.334Z,14.70
2023-05-20T16:02:06.814Z,14.61
2023-05-20T16:05:08.694Z,14.57
2023-05-20T16:08:10.504Z,14.55
2023-05-20T16:11:13.703Z,14.52
2023-05-20T16:14:15.601Z,14.48
2023-05-20T16:17:21.137Z,14.52
2023-05-20T16:20:22.974Z,14.45
2023-05-20T16:23:24.940Z,14.44
2023-05-20T16:26:43.321Z,14.45
2023-05-20T16:29:45.245Z,14.44
2023-05-20T16:32:47.194Z,14.46
2023-05-20T16:35:49.194Z,14.50
2023-05-20T16:38:51.053Z,14.50
2023-05-20T16:41:54.268Z,14.48
2023-05-20T16:44:56.024Z,14.47
2023-05-20T16:47:58.809Z,14.47
2023-05-20T16:51:00.902Z,14.49
2023-05-20T16:54:02.777Z,14.53
2023-05-20T16:57:06.856Z,14.55
2023-05-20T17:00:09.700Z,14.47
2023-05-20T17:03:12.370Z,14.41
2023-05-20T17:06:14.578Z,14.41
2023-05-20T17:09:16.740Z,14.38
2023-05-20T17:12:20.115Z,14.38
2023-05-20T17:15:23.699Z,14.39
2023-05-20T17:18:25.870Z,14.41
2023-05-20T17:21:27.818Z,14.35
2023-05-20T17:24:30.289Z,14.33
2023-05-20T17:27:33.718Z,14.34
2023-05-20T17:30:35.763Z,14.37
2023-05-20T17:33:38.778Z,14.36
2023-05-20T17:36:40.964Z,14.37
2023-05-20T17:39:43.451Z,14.35
2023-05-20T17:42:48.512Z,14.36
2023-05-20T17:45:50.446Z,14.31
2023-05-20T17:48:52.543Z,14.31
2023-05-20T17:51:54.618Z,14.29
2023-05-20T17:54:56.840Z,14.33
2023-05-20T17:58:01.883Z,14.31
2023-05-20T18:01:04.066Z,14.26
2023-05-20T18:04:06.415Z,14.25
2023-05-20T18:07:08.641Z,14.21
2023-05-20T18:10:10.775Z,14.21
2023-05-20T18:13:14.259Z,14.19
2023-05-20T18:16:16.871Z,14.16
2023-05-20T18:19:18.896Z,14.14
2023-05-20T18:22:21.031Z,14.09
2023-05-20T18:25:23.050Z,14.03
2023-05-20T18:28:26.395Z,13.96
2023-05-20T18:31:28.404Z,13.92
2023-05-20T18:34:32.531Z,13.87
2023-05-20T18:37:34.592Z,13.83
2023-05-20T18:40:36.696Z,13.82
2023-05-20T18:43:40.322Z,13.79
2023-05-20T18:46:42.412Z,13.76
2023-05-20T18:49:44.660Z,13.73
2023-05-20T18:52:46.579Z,13.71
2023-05-20T18:55:48.678Z,13.63
2023-05-20T18:58:51.883Z,13.58
2023-05-20T19:01:53.871Z,13.58
2023-05-20T19:04:56.201Z,13.57
2023-05-20T19:07:58.321Z,13.53
2023-05-20T19:11:00.522Z,13.50
2023-05-20T19:14:06.429Z,13.48
2023-05-20T19:17:08.399Z,13.45
2023-05-20T19:20:10.662Z,13.41
2023-05-20T19:23:12.390Z,13.37
2023-05-20T19:26:14.404Z,13.36
2023-05-20T19:29:17.981Z,13.33
2023-05-20T19:32:19.751Z,13.29
2023-05-20T19:35:21.726Z,13.27
2023-05-20T19:38:23.736Z,13.24
2023-05-20T19:41:26.138Z,13.20
2023-05-20T19:44:29.543Z,13.14
2023-05-20T19:47:31.594Z,13.13
2023-05-20T19:50:34.213Z,13.13
2023-05-20T19:53:37.073Z,13.11
2023-05-20T19:56:39.039Z,13.10
2023-05-20T19:59:42.429Z,13.09
2023-05-20T20:02:44.378Z,13.09
2023-05-20T20:05:46.463Z,13.08
2023-05-20T20:08:48.635Z,13.05
2023-05-20T20:11:50.948Z,13.02
2023-05-20T20:14:54.666Z,13.04
2023-05-20T20:17:57.212Z,13.02
2023-05-20T20:21:06.022Z,13.00
2023-05-20T20:24:10.795Z,13.00
2023-05-20T20:27:15.626Z,13.02
2023-05-20T20:30:22.640Z,13.01
2023-05-20T20:33:24.555Z,13.06
2023-05-20T20:36:31.852Z,13.11
2023-05-20T20:39:36.268Z,13.15
2023-05-20T20:42:38.655Z,13.18
2023-05-20T20:45:42.876Z,13.21
2023-05-20T20:48:48.088Z,13.25
2023-05-20T20:51:50.694Z,13.29
2023-05-20T20:54:53.315Z,13.29
2023-05-20T20:57:56.778Z,13.31
2023-05-20T21:01:00.255Z,13.33
2023-05-20T21:04:03.469Z,13.33
2023-05-20T21:07:05.805Z,13.33
2023-05-20T21:10:08.911Z,13.32
2023-05-20T21:13:11.392Z,13.33
2023-05-20T21:16:15.265Z,13.33
2023-05-20T21:19:17.629Z,13.32
2023-05-20T21:22:20.040Z,13.31
2023-05-20T21:25:22.269Z,13.32
2023-05-20T21:28:24.559Z,13.30
2023-05-20T21:31:28.156Z,13.30
2023-05-20T21:34:30.365Z,13.29
2023-05-20T21:37:32.475Z,13.28
2023-05-20T21:40:34.757Z,13.25
2023-05-20T21:43:37.481Z,13.23
2023-05-20T21:46:40.958Z,13.17
2023-05-20T21:49:43.177Z,13.15
2023-05-20T21:52:45.463Z,13.15
2023-05-20T21:55:47.789Z,13.12
2023-05-20T21:58:49.871Z,13.11
2023-05-20T22:01:56.962Z,13.04
2023-05-20T22:05:01.288Z,13.04
2023-05-20T22:08:04.809Z,13.09
2023-05-20T22:11:08.102Z,13.08
2023-05-20T22:14:09.980Z,13.07
2023-05-20T22:17:14.025Z,13.07
2023-05-20T22:20:16.481Z,13.06
2023-05-20T22:23:18.606Z,13.02
2023-05-20T22:26:21.524Z,12.99
2023-05-20T22:29:23.694Z,12.98
2023-05-20T22:32:27.320Z,13.00
2023-05-20T22:35:31.531Z,12.96
2023-05-20T22:38:35.968Z,12.90
2023-05-20T22:41:38.194Z,12.87
2023-05-20T22:44:41.114Z,12.84
2023-05-20T22:47:44.984Z,12.81
2023-05-20T22:50:48.370Z,12.79
2023-05-20T22:53:50.454Z,12.74
2023-05-20T22:57:00.006Z,12.72
2023-05-20T23:00:03.337Z,12.67
2023-05-20T23:03:08.124Z,12.68
2023-05-20T23:06:12.856Z,12.71
2023-05-20T23:09:14.952Z,12.69
2023-05-20T23:12:17.421Z,12.66
2023-05-20T23:15:19.340Z,12.62
2023-05-20T23:18:23.540Z,12.63
2023-05-20T23:21:28.002Z,12.63
2023-05-20T23:24:30.291Z,12.61
2023-05-20T23:27:32.586Z,12.60
2023-05-20T23:30:34.658Z,12.59
2023-05-20T23:33:38.298Z,12.57
2023-05-20T23:36:42.220Z,12.54
2023-05-20T23:39:44.493Z,12.52
2023-05-20T23:42:46.420Z,12.50
2023-05-20T23:45:48.445Z,12.46
2023-05-20T23:48:51.757Z,12.42
2023-05-20T23:51:53.886Z,12.38
2023-05-20T23:54:56.706Z,12.33
2023-05-20T23:57:59.261Z,12.32
